sensor_id;sensor_type;location;lat;lon;timestamp;pressure;altitude;pressure_sealevel;temperature;humidity
62634;BME280;48704;50.534;6.442;2023-04-06T00:00:58;95620.81;;;0.33;86.76
62634;BME280;48704;50.534;6.442;2023-04-06T00:03:23;95618.47;;;0.89;84.21
62634;BME280;48704;50.534;6.442;2023-04-06T00:05:48;95614.09;;;0.69;85.79
62634;BME280;48704;50.534;6.442;2023-04-06T00:08:14;95613.78;;;0.63;87.47
62634;BME280;48704;50.534;6.442;2023-04-06T00:10:39;95606.38;;;0.60;85.65
62634;BME280;48704;50.534;6.442;2023-04-06T00:13:06;95610.50;;;0.41;87.23
62634;BME280;48704;50.534;6.442;2023-04-06T00:15:32;95610.72;;;0.57;86.00
62634;BME280;48704;50.534;6.442;2023-04-06T00:17:57;95612.63;;;0.60;87.03
62634;BME280;48704;50.534;6.442;2023-04-06T00:20:22;95606.88;;;0.51;89.98
62634;BME280;48704;50.534;6.442;2023-04-06T00:22:48;95610.38;;;0.52;88.04
62634;BME280;48704;50.534;6.442;2023-04-06T00:25:13;95608.00;;;0.23;92.59
62634;BME280;48704;50.534;6.442;2023-04-06T00:27:40;95595.31;;;0.03;94.76
62634;BME280;48704;50.534;6.442;2023-04-06T00:30:07;95598.25;;;-0.12;96.44
62634;BME280;48704;50.534;6.442;2023-04-06T00:32:33;95599.19;;;-0.29;98.29
62634;BME280;48704;50.534;6.442;2023-04-06T00:34:58;95601.69;;;-0.04;97.02
62634;BME280;48704;50.534;6.442;2023-04-06T00:37:24;95595.44;;;-0.05;94.81
62634;BME280;48704;50.534;6.442;2023-04-06T00:39:49;95589.00;;;-0.25;93.93
62634;BME280;48704;50.534;6.442;2023-04-06T00:42:17;95592.50;;;-0.24;94.99
62634;BME280;48704;50.534;6.442;2023-04-06T00:44:43;95591.72;;;-0.25;96.44
62634;BME280;48704;50.534;6.442;2023-04-06T00:47:09;95579.97;;;-0.22;95.63
62634;BME280;48704;50.534;6.442;2023-04-06T00:49:35;95574.69;;;-0.40;97.91
62634;BME280;48704;50.534;6.442;2023-04-06T00:52:00;95572.44;;;-0.48;97.32
62634;BME280;48704;50.534;6.442;2023-04-06T00:54:27;95561.41;;;-0.41;97.85
62634;BME280;48704;50.534;6.442;2023-04-06T00:56:52;95566.84;;;-0.38;98.02
62634;BME280;48704;50.534;6.442;2023-04-06T00:59:18;95565.47;;;-0.56;98.84
62634;BME280;48704;50.534;6.442;2023-04-06T01:01:43;95563.66;;;-0.74;100.00
62634;BME280;48704;50.534;6.442;2023-04-06T01:04:09;95560.63;;;-0.79;100.00
62634;BME280;48704;50.534;6.442;2023-04-06T01:06:34;95563.22;;;-0.69;100.00
62634;BME280;48704;50.534;6.442;2023-04-06T01:08:59;95566.34;;;-0.67;100.00
62634;BME280;48704;50.534;6.442;2023-04-06T01:11:25;95565.06;;;-0.55;100.00
62634;BME280;48704;50.534;6.442;2023-04-06T01:13:51;95564.41;;;-0.32;93.04
62634;BME280;48704;50.534;6.442;2023-04-06T01:16:16;95562.22;;;-0.44;94.52
62634;BME280;48704;50.534;6.442;2023-04-06T01:18:42;95558.38;;;-0.50;96.45
62634;BME280;48704;50.534;6.442;2023-04-06T01:21:08;95564.53;;;-0.39;94.10
62634;BME280;48704;50.534;6.442;2023-04-06T01:23:34;95556.44;;;-0.16;93.16
62634;BME280;48704;50.534;6.442;2023-04-06T01:25:59;95554.28;;;-0.35;96.01
62634;BME280;48704;50.534;6.442;2023-04-06T01:28:25;95547.34;;;-0.81;100.00
62634;BME280;48704;50.534;6.442;2023-04-06T01:30:50;95553.09;;;-0.34;94.88
62634;BME280;48704;50.534;6.442;2023-04-06T01:33:16;95539.53;;;-0.11;91.16
62634;BME280;48704;50.534;6.442;2023-04-06T01:35:41;95537.69;;;-0.21;91.65
62634;BME280;48704;50.534;6.442;2023-04-06T01:38:06;95539.28;;;-0.23;92.50
62634;BME280;48704;50.534;6.442;2023-04-06T01:40:31;95540.41;;;-0.51;93.50
62634;BME280;48704;50.534;6.442;2023-04-06T01:42:57;95535.06;;;-0.65;96.22
62634;BME280;48704;50.534;6.442;2023-04-06T01:45:22;95534.28;;;-0.66;96.42
62634;BME280;48704;50.534;6.442;2023-04-06T01:47:47;95531.34;;;-0.45;93.56
62634;BME280;48704;50.534;6.442;2023-04-06T01:50:12;95526.53;;;-0.37;92.72
62634;BME280;48704;50.534;6.442;2023-04-06T01:52:38;95524.06;;;-0.62;97.12
62634;BME280;48704;50.534;6.442;2023-04-06T01:55:03;95521.22;;;-0.51;97.15
62634;BME280;48704;50.534;6.442;2023-04-06T01:57:29;95521.00;;;-0.68;95.11
62634;BME280;48704;50.534;6.442;2023-04-06T01:59:54;95521.91;;;-0.78;98.60
62634;BME280;48704;50.534;6.442;2023-04-06T02:02:19;95520.09;;;-0.54;95.08
62634;BME280;48704;50.534;6.442;2023-04-06T02:04:45;95523.63;;;-0.23;91.80
62634;BME280;48704;50.534;6.442;2023-04-06T02:07:10;95518.16;;;-0.23;91.52
62634;BME280;48704;50.534;6.442;2023-04-06T02:09:35;95514.25;;;-0.22;91.35
62634;BME280;48704;50.534;6.442;2023-04-06T02:12:01;95521.84;;;-0.03;90.71
62634;BME280;48704;50.534;6.442;2023-04-06T02:14:27;95516.53;;;-0.17;92.86
62634;BME280;48704;50.534;6.442;2023-04-06T02:16:53;95517.88;;;-0.32;94.39
62634;BME280;48704;50.534;6.442;2023-04-06T02:19:18;95511.94;;;-0.27;94.33
62634;BME280;48704;50.534;6.442;2023-04-06T02:21:43;95506.78;;;-0.52;94.10
62634;BME280;48704;50.534;6.442;2023-04-06T02:24:09;95519.25;;;-0.47;96.16
62634;BME280;48704;50.534;6.442;2023-04-06T02:26:34;95507.66;;;-0.28;94.73
62634;BME280;48704;50.534;6.442;2023-04-06T02:28:59;95506.69;;;-0.11;94.43
62634;BME280;48704;50.534;6.442;2023-04-06T02:31:27;95500.19;;;-0.24;95.54
62634;BME280;48704;50.534;6.442;2023-04-06T02:33:52;95500.56;;;0.09;93.37
62634;BME280;48704;50.534;6.442;2023-04-06T02:36:17;95497.91;;;0.32;92.33
62634;BME280;48704;50.534;6.442;2023-04-06T02:38:42;95495.16;;;0.32;92.40
62634;BME280;48704;50.534;6.442;2023-04-06T02:41:08;95499.44;;;0.33;92.35
62634;BME280;48704;50.534;6.442;2023-04-06T02:43:33;95494.78;;;0.30;92.46
62634;BME280;48704;50.534;6.442;2023-04-06T02:45:59;95492.09;;;0.26;93.56
62634;BME280;48704;50.534;6.442;2023-04-06T02:48:25;95489.44;;;0.19;94.78
62634;BME280;48704;50.534;6.442;2023-04-06T02:50:50;95501.09;;;0.27;94.44
62634;BME280;48704;50.534;6.442;2023-04-06T02:53:15;95492.75;;;0.07;96.61
62634;BME280;48704;50.534;6.442;2023-04-06T02:55:41;95491.16;;;0.10;95.77
62634;BME280;48704;50.534;6.442;2023-04-06T02:58:06;95492.50;;;0.25;95.97
62634;BME280;48704;50.534;6.442;2023-04-06T03:00:31;95489.44;;;0.46;94.69
62634;BME280;48704;50.534;6.442;2023-04-06T03:02:56;95483.91;;;0.23;95.89
62634;BME280;48704;50.534;6.442;2023-04-06T03:05:22;95486.81;;;0.39;95.97
62634;BME280;48704;50.534;6.442;2023-04-06T03:07:47;95492.09;;;0.53;95.28
62634;BME280;48704;50.534;6.442;2023-04-06T03:10:12;95491.19;;;0.60;94.69
62634;BME280;48704;50.534;6.442;2023-04-06T03:12:38;95484.97;;;0.32;96.54
62634;BME280;48704;50.534;6.442;2023-04-06T03:15:03;95485.88;;;0.49;96.14
62634;BME280;48704;50.534;6.442;2023-04-06T03:17:29;95482.81;;;0.44;95.37
62634;BME280;48704;50.534;6.442;2023-04-06T03:19:55;95484.44;;;0.41;95.17
62634;BME280;48704;50.534;6.442;2023-04-06T03:22:20;95490.72;;;0.38;95.71
62634;BME280;48704;50.534;6.442;2023-04-06T03:24:45;95491.41;;;0.46;95.43
62634;BME280;48704;50.534;6.442;2023-04-06T03:27:11;95489.25;;;0.33;96.00
62634;BME280;48704;50.534;6.442;2023-04-06T03:29:36;95492.38;;;0.36;96.85
62634;BME280;48704;50.534;6.442;2023-04-06T03:32:01;95490.28;;;0.43;96.74
62634;BME280;48704;50.534;6.442;2023-04-06T03:34:27;95486.94;;;0.32;97.41
62634;BME280;48704;50.534;6.442;2023-04-06T03:36:52;95483.41;;;0.58;96.32
62634;BME280;48704;50.534;6.442;2023-04-06T03:39:17;95494.25;;;0.65;95.59
62634;BME280;48704;50.534;6.442;2023-04-06T03:41:43;95482.47;;;0.69;94.63
62634;BME280;48704;50.534;6.442;2023-04-06T03:44:09;95484.94;;;0.59;95.52
62634;BME280;48704;50.534;6.442;2023-04-06T03:46:35;95485.88;;;0.49;96.10
62634;BME280;48704;50.534;6.442;2023-04-06T03:49:00;95488.03;;;0.61;95.13
62634;BME280;48704;50.534;6.442;2023-04-06T03:51:27;95492.41;;;0.82;93.91
62634;BME280;48704;50.534;6.442;2023-04-06T03:53:52;95491.53;;;0.89;93.42
62634;BME280;48704;50.534;6.442;2023-04-06T03:56:18;95489.25;;;0.84;94.08
62634;BME280;48704;50.534;6.442;2023-04-06T03:58:43;95486.09;;;0.85;92.83
62634;BME280;48704;50.534;6.442;2023-04-06T04:01:10;95495.50;;;0.84;93.31
62634;BME280;48704;50.534;6.442;2023-04-06T04:03:35;95493.06;;;0.90;92.70
62634;BME280;48704;50.534;6.442;2023-04-06T04:06:01;95487.47;;;0.97;91.90
62634;BME280;48704;50.534;6.442;2023-04-06T04:08:26;95484.97;;;1.06;91.07
62634;BME280;48704;50.534;6.442;2023-04-06T04:10:51;95487.16;;;1.15;91.19
62634;BME280;48704;50.534;6.442;2023-04-06T04:13:17;95484.91;;;1.10;91.97
62634;BME280;48704;50.534;6.442;2023-04-06T04:15:42;95489.88;;;1.15;92.32
62634;BME280;48704;50.534;6.442;2023-04-06T04:18:07;95488.34;;;1.14;91.67
62634;BME280;48704;50.534;6.442;2023-04-06T04:20:32;95497.59;;;1.00;92.99
62634;BME280;48704;50.534;6.442;2023-04-06T04:22:59;95487.06;;;0.98;92.77
62634;BME280;48704;50.534;6.442;2023-04-06T04:25:24;95486.63;;;1.00;93.11
62634;BME280;48704;50.534;6.442;2023-04-06T04:27:49;95492.59;;;0.95;94.29
62634;BME280;48704;50.534;6.442;2023-04-06T04:30:15;95489.03;;;0.98;94.40
62634;BME280;48704;50.534;6.442;2023-04-06T04:32:41;95488.91;;;1.05;94.04
62634;BME280;48704;50.534;6.442;2023-04-06T04:35:06;95496.50;;;1.17;93.02
62634;BME280;48704;50.534;6.442;2023-04-06T04:37:32;95491.63;;;1.28;92.83
62634;BME280;48704;50.534;6.442;2023-04-06T04:39:57;95501.75;;;1.31;92.46
62634;BME280;48704;50.534;6.442;2023-04-06T04:42:22;95493.41;;;1.39;91.55
62634;BME280;48704;50.534;6.442;2023-04-06T04:44:47;95493.66;;;1.24;92.66
62634;BME280;48704;50.534;6.442;2023-04-06T04:47:13;95487.22;;;1.11;93.99
62634;BME280;48704;50.534;6.442;2023-04-06T04:49:38;95489.47;;;1.16;94.69
62634;BME280;48704;50.534;6.442;2023-04-06T04:52:03;95486.31;;;1.18;94.58
62634;BME280;48704;50.534;6.442;2023-04-06T04:54:29;95488.28;;;1.17;94.73
62634;BME280;48704;50.534;6.442;2023-04-06T04:56:54;95488.44;;;1.10;94.57
62634;BME280;48704;50.534;6.442;2023-04-06T04:59:19;95489.00;;;1.21;95.20
62634;BME280;48704;50.534;6.442;2023-04-06T05:01:45;95489.72;;;1.25;94.99
62634;BME280;48704;50.534;6.442;2023-04-06T05:04:10;95498.88;;;1.39;93.63
62634;BME280;48704;50.534;6.442;2023-04-06T05:06:35;95500.50;;;1.36;93.78
62634;BME280;48704;50.534;6.442;2023-04-06T05:09:01;95498.53;;;1.56;91.97
62634;BME280;48704;50.534;6.442;2023-04-06T05:11:26;95495.72;;;1.60;91.36
62634;BME280;48704;50.534;6.442;2023-04-06T05:13:51;95490.94;;;1.64;91.12
62634;BME280;48704;50.534;6.442;2023-04-06T05:16:17;95496.78;;;1.66;90.72
62634;BME280;48704;50.534;6.442;2023-04-06T05:18:42;95496.38;;;1.67;91.10
62634;BME280;48704;50.534;6.442;2023-04-06T05:21:09;95497.94;;;1.68;90.95
62634;BME280;48704;50.534;6.442;2023-04-06T05:23:35;95496.72;;;1.70;91.61
62634;BME280;48704;50.534;6.442;2023-04-06T05:26:00;95494.97;;;1.79;91.20
62634;BME280;48704;50.534;6.442;2023-04-06T05:28:26;95491.66;;;1.68;92.04
62634;BME280;48704;50.534;6.442;2023-04-06T05:30:51;95493.69;;;1.64;93.07
62634;BME280;48704;50.534;6.442;2023-04-06T05:33:16;95493.06;;;1.56;93.82
62634;BME280;48704;50.534;6.442;2023-04-06T05:35:42;95490.88;;;1.67;93.35
62634;BME280;48704;50.534;6.442;2023-04-06T05:38:08;95493.91;;;1.73;92.55
62634;BME280;48704;50.534;6.442;2023-04-06T05:40:34;95494.28;;;1.75;93.63
62634;BME280;48704;50.534;6.442;2023-04-06T05:43:00;95502.66;;;1.68;94.00
62634;BME280;48704;50.534;6.442;2023-04-06T05:45:25;95497.72;;;1.79;94.35
62634;BME280;48704;50.534;6.442;2023-04-06T05:47:51;95496.63;;;1.93;92.36
62634;BME280;48704;50.534;6.442;2023-04-06T05:50:16;95498.97;;;1.94;92.62
62634;BME280;48704;50.534;6.442;2023-04-06T05:52:41;95503.63;;;1.97;92.84
62634;BME280;48704;50.534;6.442;2023-04-06T05:55:08;95503.94;;;1.83;93.65
62634;BME280;48704;50.534;6.442;2023-04-06T05:57:34;95500.88;;;1.78;93.73
62634;BME280;48704;50.534;6.442;2023-04-06T05:59:59;95501.53;;;1.85;94.64
62634;BME280;48704;50.534;6.442;2023-04-06T06:02:24;95503.22;;;1.79;94.57
62634;BME280;48704;50.534;6.442;2023-04-06T06:04:50;95501.44;;;1.89;94.40
62634;BME280;48704;50.534;6.442;2023-04-06T06:07:16;95502.06;;;1.96;94.84
62634;BME280;48704;50.534;6.442;2023-04-06T06:09:42;95490.22;;;1.99;94.84
62634;BME280;48704;50.534;6.442;2023-04-06T06:12:07;95497.41;;;1.93;94.56
62634;BME280;48704;50.534;6.442;2023-04-06T06:14:32;95487.41;;;2.03;95.98
62634;BME280;48704;50.534;6.442;2023-04-06T06:16:58;95496.84;;;2.22;95.40
62634;BME280;48704;50.534;6.442;2023-04-06T06:19:23;95496.50;;;2.36;93.63
62634;BME280;48704;50.534;6.442;2023-04-06T06:21:48;95488.63;;;2.38;92.77
62634;BME280;48704;50.534;6.442;2023-04-06T06:24:14;95495.84;;;2.48;93.36
62634;BME280;48704;50.534;6.442;2023-04-06T06:26:39;95493.81;;;2.52;92.52
62634;BME280;48704;50.534;6.442;2023-04-06T06:29:05;95491.91;;;2.65;92.46
62634;BME280;48704;50.534;6.442;2023-04-06T06:31:31;95496.91;;;2.71;94.66
62634;BME280;48704;50.534;6.442;2023-04-06T06:33:56;95496.59;;;2.85;93.22
62634;BME280;48704;50.534;6.442;2023-04-06T06:36:22;95498.13;;;2.86;93.82
62634;BME280;48704;50.534;6.442;2023-04-06T06:38:47;95495.34;;;3.02;92.70
62634;BME280;48704;50.534;6.442;2023-04-06T06:41:13;95502.41;;;3.19;92.50
62634;BME280;48704;50.534;6.442;2023-04-06T06:43:38;95494.66;;;3.14;92.46
62634;BME280;48704;50.534;6.442;2023-04-06T06:46:04;95503.00;;;3.27;92.97
62634;BME280;48704;50.534;6.442;2023-04-06T06:48:29;95493.75;;;3.50;92.46
62634;BME280;48704;50.534;6.442;2023-04-06T06:50:55;95504.41;;;3.64;91.02
62634;BME280;48704;50.534;6.442;2023-04-06T06:53:21;95494.03;;;3.97;92.02
62634;BME280;48704;50.534;6.442;2023-04-06T06:55:47;95497.84;;;4.28;91.32
62634;BME280;48704;50.534;6.442;2023-04-06T06:58:14;95504.63;;;4.40;91.81
62634;BME280;48704;50.534;6.442;2023-04-06T07:00:39;95491.81;;;4.72;90.80
62634;BME280;48704;50.534;6.442;2023-04-06T07:03:04;95488.72;;;4.57;89.71
62634;BME280;48704;50.534;6.442;2023-04-06T07:05:30;95494.00;;;4.89;90.54
62634;BME280;48704;50.534;6.442;2023-04-06T07:07:55;95492.03;;;4.64;88.85
62634;BME280;48704;50.534;6.442;2023-04-06T07:10:21;95493.56;;;4.91;91.92
62634;BME280;48704;50.534;6.442;2023-04-06T07:12:46;95493.44;;;5.20;90.22
62634;BME280;48704;50.534;6.442;2023-04-06T07:15:12;95493.28;;;5.23;89.33
62634;BME280;48704;50.534;6.442;2023-04-06T07:17:37;95487.97;;;5.42;87.93
62634;BME280;48704;50.534;6.442;2023-04-06T07:20:03;95483.22;;;5.64;87.44
62634;BME280;48704;50.534;6.442;2023-04-06T07:22:29;95485.41;;;5.69;85.15
62634;BME280;48704;50.534;6.442;2023-04-06T07:24:54;95491.78;;;5.57;85.16
62634;BME280;48704;50.534;6.442;2023-04-06T07:27:20;95489.97;;;5.63;84.50
62634;BME280;48704;50.534;6.442;2023-04-06T07:29:45;95494.03;;;5.71;85.00
62634;BME280;48704;50.534;6.442;2023-04-06T07:32:11;95490.38;;;5.74;83.57
62634;BME280;48704;50.534;6.442;2023-04-06T07:34:36;95493.81;;;5.78;82.59
62634;BME280;48704;50.534;6.442;2023-04-06T07:37:01;95494.22;;;5.55;81.73
62634;BME280;48704;50.534;6.442;2023-04-06T07:39:28;95483.56;;;5.66;83.42
62634;BME280;48704;50.534;6.442;2023-04-06T07:41:53;95484.03;;;5.86;83.08
62634;BME280;48704;50.534;6.442;2023-04-06T07:44:18;95489.56;;;5.86;82.86
62634;BME280;48704;50.534;6.442;2023-04-06T07:46:44;95492.81;;;6.07;83.64
62634;BME280;48704;50.534;6.442;2023-04-06T07:49:09;95487.38;;;5.81;80.89
62634;BME280;48704;50.534;6.442;2023-04-06T07:51:37;95487.16;;;5.76;82.42
62634;BME280;48704;50.534;6.442;2023-04-06T07:54:02;95488.09;;;5.94;83.15
62634;BME280;48704;50.534;6.442;2023-04-06T07:56:28;95493.09;;;5.87;79.16
62634;BME280;48704;50.534;6.442;2023-04-06T07:58:53;95490.34;;;6.09;80.27
62634;BME280;48704;50.534;6.442;2023-04-06T08:01:21;95487.09;;;6.32;79.79
62634;BME280;48704;50.534;6.442;2023-04-06T08:03:47;95490.47;;;6.05;77.26
62634;BME280;48704;50.534;6.442;2023-04-06T08:06:12;95491.00;;;6.13;79.07
62634;BME280;48704;50.534;6.442;2023-04-06T08:08:37;95489.47;;;6.12;79.02
62634;BME280;48704;50.534;6.442;2023-04-06T08:11:03;95484.56;;;6.16;79.71
62634;BME280;48704;50.534;6.442;2023-04-06T08:13:28;95471.63;;;6.13;80.05
62634;BME280;48704;50.534;6.442;2023-04-06T08:15:53;95487.59;;;6.09;77.91
62634;BME280;48704;50.534;6.442;2023-04-06T08:18:19;95476.59;;;6.18;78.16
62634;BME280;48704;50.534;6.442;2023-04-06T08:20:44;95479.13;;;6.34;77.79
62634;BME280;48704;50.534;6.442;2023-04-06T08:23:10;95478.59;;;6.48;77.71
62634;BME280;48704;50.534;6.442;2023-04-06T08:25:36;95486.97;;;6.35;76.87
62634;BME280;48704;50.534;6.442;2023-04-06T08:28:03;95476.81;;;6.32;76.57
62634;BME280;48704;50.534;6.442;2023-04-06T08:30:29;95492.03;;;6.06;74.43
62634;BME280;48704;50.534;6.442;2023-04-06T08:32:54;95478.41;;;6.12;76.21
62634;BME280;48704;50.534;6.442;2023-04-06T08:35:20;95478.78;;;6.23;75.16
62634;BME280;48704;50.534;6.442;2023-04-06T08:37:45;95481.56;;;6.32;75.57
62634;BME280;48704;50.534;6.442;2023-04-06T08:40:11;95486.06;;;6.60;74.47
62634;BME280;48704;50.534;6.442;2023-04-06T08:42:40;95484.25;;;6.76;72.62
62634;BME280;48704;50.534;6.442;2023-04-06T08:45:08;95485.91;;;7.04;72.96
62634;BME280;48704;50.534;6.442;2023-04-06T08:47:34;95482.25;;;7.16;72.10
62634;BME280;48704;50.534;6.442;2023-04-06T08:50:04;95480.38;;;7.04;72.99
62634;BME280;48704;50.534;6.442;2023-04-06T08:52:31;95480.22;;;7.08;72.28
62634;BME280;48704;50.534;6.442;2023-04-06T08:54:57;95483.81;;;6.77;71.15
62634;BME280;48704;50.534;6.442;2023-04-06T08:57:22;95478.41;;;6.74;71.85
62634;BME280;48704;50.534;6.442;2023-04-06T08:59:48;95476.84;;;6.72;73.07
62634;BME280;48704;50.534;6.442;2023-04-06T09:02:17;95477.91;;;7.06;71.17
62634;BME280;48704;50.534;6.442;2023-04-06T09:04:48;95483.22;;;7.31;71.21
62634;BME280;48704;50.534;6.442;2023-04-06T09:07:15;95488.06;;;7.09;67.12
62634;BME280;48704;50.534;6.442;2023-04-06T09:09:41;95483.78;;;7.17;70.19
62634;BME280;48704;50.534;6.442;2023-04-06T09:12:28;95485.38;;;7.46;73.76
62634;BME280;48704;50.534;6.442;2023-04-06T09:14:55;95493.09;;;7.87;68.17
62634;BME280;48704;50.534;6.442;2023-04-06T09:17:28;95476.78;;;7.71;68.20
62634;BME280;48704;50.534;6.442;2023-04-06T09:19:55;95485.69;;;7.48;70.13
62634;BME280;48704;50.534;6.442;2023-04-06T09:22:20;95490.59;;;7.44;67.55
62634;BME280;48704;50.534;6.442;2023-04-06T09:24:51;95490.47;;;7.38;68.43
62634;BME280;48704;50.534;6.442;2023-04-06T09:27:17;95489.38;;;7.35;68.91
62634;BME280;48704;50.534;6.442;2023-04-06T09:29:44;95489.63;;;7.19;69.61
62634;BME280;48704;50.534;6.442;2023-04-06T09:32:10;95483.78;;;7.17;70.29
62634;BME280;48704;50.534;6.442;2023-04-06T09:34:38;95480.69;;;7.15;70.41
62634;BME280;48704;50.534;6.442;2023-04-06T09:39:39;95485.22;;;7.31;71.74
62634;BME280;48704;50.534;6.442;2023-04-06T09:42:04;95486.59;;;7.35;69.48
62634;BME280;48704;50.534;6.442;2023-04-06T09:44:30;95482.91;;;7.38;69.06
62634;BME280;48704;50.534;6.442;2023-04-06T09:46:55;95483.41;;;7.64;70.05
62634;BME280;48704;50.534;6.442;2023-04-06T09:49:22;95492.00;;;7.48;68.91
62634;BME280;48704;50.534;6.442;2023-04-06T09:52:06;95493.53;;;7.49;69.36
62634;BME280;48704;50.534;6.442;2023-04-06T09:54:36;95489.09;;;7.61;70.68
62634;BME280;48704;50.534;6.442;2023-04-06T09:57:18;95486.81;;;7.78;69.66
62634;BME280;48704;50.534;6.442;2023-04-06T10:02:34;95492.00;;;7.48;71.35
62634;BME280;48704;50.534;6.442;2023-04-06T10:05:09;95485.72;;;7.66;69.00
62634;BME280;48704;50.534;6.442;2023-04-06T10:07:40;95491.38;;;7.44;70.25
62634;BME280;48704;50.534;6.442;2023-04-06T10:10:06;95489.25;;;7.57;70.81
62634;BME280;48704;50.534;6.442;2023-04-06T10:12:33;95486.78;;;7.59;71.40
62634;BME280;48704;50.534;6.442;2023-04-06T10:14:58;95485.09;;;7.89;70.54
62634;BME280;48704;50.534;6.442;2023-04-06T10:17:24;95484.91;;;8.20;69.89
62634;BME280;48704;50.534;6.442;2023-04-06T10:19:55;95487.22;;;8.22;70.29
62634;BME280;48704;50.534;6.442;2023-04-06T10:22:32;95489.72;;;8.01;69.50
62634;BME280;48704;50.534;6.442;2023-04-06T10:25:00;95492.16;;;8.18;70.73
62634;BME280;48704;50.534;6.442;2023-04-06T10:27:29;95484.19;;;8.11;70.49
62634;BME280;48704;50.534;6.442;2023-04-06T10:30:02;95488.31;;;8.33;74.00
62634;BME280;48704;50.534;6.442;2023-04-06T10:32:38;95496.53;;;8.79;68.83
62634;BME280;48704;50.534;6.442;2023-04-06T10:35:11;95485.59;;;8.76;68.76
62634;BME280;48704;50.534;6.442;2023-04-06T10:37:49;95482.38;;;9.01;71.67
62634;BME280;48704;50.534;6.442;2023-04-06T10:40:22;95499.78;;;9.44;67.79
62634;BME280;48704;50.534;6.442;2023-04-06T10:42:48;95488.69;;;9.34;69.12
62634;BME280;48704;50.534;6.442;2023-04-06T10:45:30;95490.19;;;9.45;67.45
62634;BME280;48704;50.534;6.442;2023-04-06T10:47:56;95493.97;;;9.32;66.74
62634;BME280;48704;50.534;6.442;2023-04-06T10:50:22;95489.13;;;8.85;69.25
62634;BME280;48704;50.534;6.442;2023-04-06T10:52:59;95488.28;;;8.52;70.37
62634;BME280;48704;50.534;6.442;2023-04-06T10:55:26;95479.97;;;8.24;70.43
62634;BME280;48704;50.534;6.442;2023-04-06T10:57:51;95485.38;;;8.46;71.42
62634;BME280;48704;50.534;6.442;2023-04-06T11:00:17;95488.47;;;8.48;71.24
62634;BME280;48704;50.534;6.442;2023-04-06T11:02:44;95480.31;;;8.35;71.80
62634;BME280;48704;50.534;6.442;2023-04-06T11:05:11;95477.34;;;8.30;71.89
62634;BME280;48704;50.534;6.442;2023-04-06T11:07:39;95482.00;;;8.33;72.34
62634;BME280;48704;50.534;6.442;2023-04-06T11:10:06;95475.75;;;8.65;72.37
62634;BME280;48704;50.534;6.442;2023-04-06T11:12:31;95488.16;;;8.19;67.58
62634;BME280;48704;50.534;6.442;2023-04-06T11:14:59;95482.13;;;8.29;68.82
62634;BME280;48704;50.534;6.442;2023-04-06T11:17:30;95485.84;;;8.35;70.09
62634;BME280;48704;50.534;6.442;2023-04-06T11:19:56;95484.44;;;8.49;69.84
62634;BME280;48704;50.534;6.442;2023-04-06T11:22:22;95486.25;;;8.61;69.70
62634;BME280;48704;50.534;6.442;2023-04-06T11:24:48;95488.22;;;8.70;69.66
62634;BME280;48704;50.534;6.442;2023-04-06T11:27:14;95485.09;;;8.35;66.66
62634;BME280;48704;50.534;6.442;2023-04-06T11:29:41;95483.22;;;8.50;67.13
62634;BME280;48704;50.534;6.442;2023-04-06T11:32:07;95488.47;;;8.39;66.97
62634;BME280;48704;50.534;6.442;2023-04-06T11:34:37;95477.59;;;8.59;67.81
62634;BME280;48704;50.534;6.442;2023-04-06T11:37:07;95475.75;;;8.65;69.40
62634;BME280;48704;50.534;6.442;2023-04-06T11:39:47;95477.34;;;8.30;69.16
62634;BME280;48704;50.534;6.442;2023-04-06T11:42:21;95478.44;;;8.32;68.73
62634;BME280;48704;50.534;6.442;2023-04-06T11:44:50;95478.00;;;7.97;70.48
62634;BME280;48704;50.534;6.442;2023-04-06T11:47:16;95469.06;;;7.57;69.84
62634;BME280;48704;50.534;6.442;2023-04-06T11:49:43;95476.94;;;7.86;70.55
62634;BME280;48704;50.534;6.442;2023-04-06T11:52:23;95472.28;;;7.46;71.04
62634;BME280;48704;50.534;6.442;2023-04-06T11:54:50;95468.78;;;7.73;72.97
62634;BME280;48704;50.534;6.442;2023-04-06T11:57:17;95466.59;;;7.86;70.74
62634;BME280;48704;50.534;6.442;2023-04-06T11:59:43;95463.22;;;8.10;72.45
62634;BME280;48704;50.534;6.442;2023-04-06T12:02:08;95465.53;;;7.56;73.27
62634;BME280;48704;50.534;6.442;2023-04-06T12:04:34;95465.44;;;7.01;80.50
62634;BME280;48704;50.534;6.442;2023-04-06T12:07:00;95476.22;;;6.59;83.52
62634;BME280;48704;50.534;6.442;2023-04-06T12:09:25;95471.69;;;6.84;90.07
62634;BME280;48704;50.534;6.442;2023-04-06T12:11:50;95473.44;;;6.59;86.82
62634;BME280;48704;50.534;6.442;2023-04-06T12:14:16;95467.13;;;6.59;90.74
62634;BME280;48704;50.534;6.442;2023-04-06T12:16:41;95467.41;;;6.52;92.92
62634;BME280;48704;50.534;6.442;2023-04-06T12:19:06;95469.41;;;6.51;95.93
62634;BME280;48704;50.534;6.442;2023-04-06T12:21:33;95466.56;;;6.42;98.17
62634;BME280;48704;50.534;6.442;2023-04-06T12:23:59;95470.16;;;6.21;98.89
62634;BME280;48704;50.534;6.442;2023-04-06T12:26:25;95466.31;;;6.49;100.00
62634;BME280;48704;50.534;6.442;2023-04-06T12:28:50;95473.75;;;6.61;100.00
62634;BME280;48704;50.534;6.442;2023-04-06T12:31:20;95469.91;;;6.28;100.00
62634;BME280;48704;50.534;6.442;2023-04-06T12:33:47;95482.13;;;5.96;100.00
62634;BME280;48704;50.534;6.442;2023-04-06T12:36:14;95474.00;;;5.80;100.00
62634;BME280;48704;50.534;6.442;2023-04-06T12:38:41;95472.44;;;5.91;100.00
62634;BME280;48704;50.534;6.442;2023-04-06T12:41:07;95467.72;;;6.01;100.00
62634;BME280;48704;50.534;6.442;2023-04-06T12:43:32;95481.50;;;5.92;100.00
62634;BME280;48704;50.534;6.442;2023-04-06T12:45:57;95473.13;;;6.04;100.00
62634;BME280;48704;50.534;6.442;2023-04-06T12:48:23;95483.53;;;6.00;100.00
62634;BME280;48704;50.534;6.442;2023-04-06T12:50:56;95470.44;;;5.92;100.00
62634;BME280;48704;50.534;6.442;2023-04-06T12:53:22;95464.50;;;6.02;100.00
62634;BME280;48704;50.534;6.442;2023-04-06T12:55:47;95468.69;;;6.07;100.00
62634;BME280;48704;50.534;6.442;2023-04-06T12:58:12;95455.75;;;5.82;100.00
62634;BME280;48704;50.534;6.442;2023-04-06T13:00:38;95469.44;;;5.86;100.00
62634;BME280;48704;50.534;6.442;2023-04-06T13:03:03;95458.88;;;5.50;100.00
62634;BME280;48704;50.534;6.442;2023-04-06T13:05:28;95446.59;;;5.51;100.00
62634;BME280;48704;50.534;6.442;2023-04-06T13:07:54;95452.38;;;5.44;100.00